Pagina principale
METAR-TAF:

METAR-TAF

Aeroporti :

Aeroporto di Latina

Latina, Italia

latitudine: 41-33N, longitudine: 012-54E, altezza: 25 m

Osservazione

Il bollettino è stato emesso 9 ore e 48 minuti fa, alle 17:55 UTC
Vento 1 kt da nord
Temperature 21°C
Umidità 69%
Pressione 1012 hPa
Visibilità 10 km o più
nessuna nube inferiore a 1500 m e nessun cumulonembo

METAR: LIRL 181755Z 36001KT CAVOK 21/15 Q1012 RMK SKC MON INVIS NC VIS MIN 9999 WIND THR12 00000KT WIND THR30 00000KT BLU

Ora: 05:43 (03:43 UTC)

Previsione

Il bollettino è stato emesso 10 ore e 43 minuti fa, alle 17:00 UTC
Previsione valida dal 18 alle 18 UTC al 19 alle 03 UTC
Vento 3 kt da direzioni variabili
Visibilità 10 km o più
nessuna nube inferiore a 1500 m e nessun cumulonembo

TAF: LIRL 181700Z 1818/1903 VRB03KT CAVOK

Osservazioni e previsioni meteorologiche di più di 4000 aeroporti (messaggi METAR e TAF).

Le stazioni disponibili sono rappresentate dai dischi gialli e rossi sulla carta.

Puntare il mouse per vedere il nome della stazione.

Clicca sopra per visualizzare le osservazioni e previsioni meteorologiche.

Per cambiare la mappa : fare clic sui pulsanti verdi con una croce nera per ingrandire, il pulsante verde con un trattino per diminuire, o sulla freccia verde per le mappe adiacenti.


METAR-TAF: